createdAt,value
2023-05-09T00:02:24.623Z,40.90
2023-05-09T00:05:10.100Z,40.28
2023-05-09T00:07:52.569Z,40.40
2023-05-09T00:10:34.810Z,40.35
2023-05-09T00:13:17.716Z,39.13
2023-05-09T00:16:00.739Z,40.67
2023-05-09T00:18:43.790Z,40.28
2023-05-09T00:21:26.412Z,38.60
2023-05-09T00:24:08.805Z,37.15
2023-05-09T00:26:51.020Z,36.63
2023-05-09T00:29:33.582Z,35.65
2023-05-09T00:32:15.864Z,36.30
2023-05-09T00:34:58.674Z,35.45
2023-05-09T00:37:40.900Z,33.72
2023-05-09T00:40:23.494Z,32.65
2023-05-09T00:43:05.742Z,32.75
2023-05-09T00:45:48.781Z,32.90
2023-05-09T00:48:31.126Z,32.47
2023-05-09T00:51:13.739Z,29.45
2023-05-09T00:53:56.280Z,29.63
2023-05-09T00:56:39.322Z,29.52
2023-05-09T00:59:22.152Z,29.58
2023-05-09T01:02:04.633Z,28.05
2023-05-09T01:04:47.238Z,26.33
2023-05-09T01:07:48.864Z,27.42
2023-05-09T01:10:49.595Z,27.02
2023-05-09T01:14:04.563Z,26.80
2023-05-09T01:17:13.408Z,26.10
2023-05-09T01:20:16.729Z,25.40
2023-05-09T01:23:28.149Z,25.40
2023-05-09T01:26:55.161Z,24.25
2023-05-09T01:29:46.079Z,23.45
2023-05-09T01:32:32.183Z,24.77
2023-05-09T01:35:16.463Z,24.23
2023-05-09T01:38:01.111Z,22.67
2023-05-09T01:40:47.441Z,22.10
2023-05-09T01:43:30.445Z,24.77
2023-05-09T01:46:14.241Z,24.17
2023-05-09T01:48:58.092Z,23.77
2023-05-09T01:51:43.831Z,23.10
2023-05-09T01:54:28.724Z,23.05
2023-05-09T01:57:12.241Z,22.80
2023-05-09T01:59:56.007Z,24.60
2023-05-09T02:02:41.582Z,28.80
2023-05-09T02:05:29.924Z,25.95
2023-05-09T02:08:15.388Z,25.50
2023-05-09T02:10:57.991Z,24.90
2023-05-09T02:13:40.609Z,25.05
2023-05-09T02:16:23.705Z,24.95
2023-05-09T02:19:06.447Z,24.27
2023-05-09T02:21:49.164Z,23.52
2023-05-09T02:24:34.124Z,22.02
2023-05-09T02:27:17.068Z,20.83
2023-05-09T02:30:02.600Z,20.77
2023-05-09T02:32:49.147Z,22.05
2023-05-09T02:35:31.512Z,20.95
2023-05-09T02:38:14.731Z,20.77
2023-05-09T02:40:56.946Z,19.88
2023-05-09T02:43:42.455Z,19.17
2023-05-09T02:46:24.845Z,19.55
2023-05-09T02:49:07.326Z,19.50
2023-05-09T02:51:49.512Z,20.17
2023-05-09T02:54:31.994Z,20.02
2023-05-09T02:57:14.171Z,21.42
2023-05-09T02:59:58.950Z,19.40
2023-05-09T03:02:41.933Z,20.15
2023-05-09T03:05:30.871Z,21.33
2023-05-09T03:08:13.133Z,21.58
2023-05-09T03:10:55.712Z,22.00
2023-05-09T03:13:38.008Z,22.88
2023-05-09T03:16:20.581Z,23.10
2023-05-09T03:19:03.774Z,22.08
2023-05-09T03:21:46.338Z,21.40
2023-05-09T03:24:28.809Z,23.58
2023-05-09T03:27:11.512Z,25.25
2023-05-09T03:29:53.662Z,25.05
2023-05-09T03:32:36.319Z,27.98
2023-05-09T03:35:18.673Z,28.77
2023-05-09T03:38:01.252Z,27.40
2023-05-09T03:40:43.410Z,24.63
2023-05-09T03:43:27.502Z,23.27
2023-05-09T03:46:09.646Z,28.30
2023-05-09T03:48:52.510Z,27.85
2023-05-09T03:51:34.994Z,24.77
2023-05-09T03:54:19.618Z,23.77
2023-05-09T03:57:03.550Z,24.88
2023-05-09T03:59:46.219Z,24.50
2023-05-09T04:02:30.325Z,23.95
2023-05-09T04:05:13.467Z,21.48
2023-05-09T04:07:56.602Z,20.75
2023-05-09T04:10:39.544Z,21.33
2023-05-09T04:13:21.936Z,20.80
2023-05-09T04:16:05.602Z,21.25
2023-05-09T04:18:49.458Z,21.38
2023-05-09T04:21:32.111Z,20.58
2023-05-09T04:24:16.477Z,18.42
2023-05-09T04:27:02.635Z,16.42
2023-05-09T04:29:45.676Z,16.40
2023-05-09T04:32:29.279Z,16.02
2023-05-09T04:35:13.219Z,15.65
2023-05-09T04:37:59.240Z,15.73
2023-05-09T04:40:42.475Z,13.75
2023-05-09T04:43:28.235Z,12.63
2023-05-09T04:46:11.135Z,12.23
2023-05-09T04:48:54.014Z,11.70
2023-05-09T04:51:36.450Z,11.30
2023-05-09T04:54:19.751Z,10.73
2023-05-09T04:57:16.606Z,12.27
2023-05-09T05:00:03.598Z,13.00
2023-05-09T05:02:46.819Z,12.55
2023-05-09T05:05:29.923Z,11.32
2023-05-09T05:08:12.708Z,10.00
2023-05-09T05:10:57.410Z,10.07
2023-05-09T05:13:40.275Z,10.00
2023-05-09T05:16:23.873Z,9.23
2023-05-09T05:19:07.069Z,9.70
2023-05-09T05:21:54.288Z,7.78
2023-05-09T05:24:36.662Z,7.88
2023-05-09T05:27:19.435Z,8.35
2023-05-09T05:30:02.431Z,8.43
2023-05-09T05:32:45.262Z,7.40
2023-05-09T05:35:29.843Z,7.32
2023-05-09T05:38:13.764Z,7.05
2023-05-09T05:40:57.169Z,6.20
2023-05-09T05:43:41.318Z,5.72
2023-05-09T05:46:23.613Z,6.00
2023-05-09T05:49:06.758Z,5.60
2023-05-09T05:51:49.705Z,6.03
2023-05-09T05:54:32.336Z,6.03
2023-05-09T05:57:16.339Z,5.85
2023-05-09T05:59:59.567Z,5.82
2023-05-09T06:02:50.226Z,5.47
2023-05-09T06:05:46.211Z,5.28
2023-05-09T06:08:29.004Z,4.00
2023-05-09T06:11:11.690Z,4.13
2023-05-09T06:13:53.901Z,3.80
2023-05-09T06:16:36.532Z,4.00
2023-05-09T06:19:18.685Z,3.28
2023-05-09T06:22:01.188Z,4.65
2023-05-09T06:24:43.790Z,3.80
2023-05-09T06:27:26.638Z,3.65
2023-05-09T06:30:23.875Z,3.15
2023-05-09T06:33:07.830Z,3.25
2023-05-09T06:35:50.056Z,3.15
2023-05-09T06:38:34.386Z,3.40
2023-05-09T06:41:16.642Z,3.50
2023-05-09T06:43:59.244Z,3.03
2023-05-09T06:46:41.486Z,3.15
2023-05-09T06:49:24.083Z,2.92
2023-05-09T06:52:06.273Z,3.00
2023-05-09T06:54:48.711Z,2.95
2023-05-09T06:57:31.055Z,3.33
2023-05-09T07:00:14.416Z,3.17
2023-05-09T07:02:56.700Z,3.28
2023-05-09T07:05:39.251Z,3.35
2023-05-09T07:08:21.450Z,3.25
2023-05-09T07:11:03.983Z,3.47
2023-05-09T07:13:46.981Z,3.00
2023-05-09T07:16:29.786Z,3.30
2023-05-09T07:19:12.113Z,4.07
2023-05-09T07:21:54.745Z,3.30
2023-05-09T07:24:36.964Z,3.38
2023-05-09T07:27:19.421Z,2.90
2023-05-09T07:30:01.594Z,2.17
2023-05-09T07:32:44.134Z,2.30
2023-05-09T07:35:26.546Z,2.65
2023-05-09T07:38:11.067Z,2.67
2023-05-09T07:40:53.683Z,2.92
2023-05-09T07:43:36.308Z,2.60
2023-05-09T07:46:18.552Z,2.33
2023-05-09T07:49:01.134Z,3.00
2023-05-09T07:51:43.427Z,3.05
2023-05-09T07:54:26.330Z,2.60
2023-05-09T07:57:08.665Z,2.97
2023-05-09T07:59:51.331Z,2.90
2023-05-09T08:02:33.962Z,2.70
2023-05-09T08:05:17.064Z,2.30
2023-05-09T08:07:59.419Z,2.10
2023-05-09T08:10:42.080Z,1.95
2023-05-09T08:13:24.900Z,2.03
2023-05-09T08:16:07.728Z,2.40
2023-05-09T08:18:50.070Z,1.90
2023-05-09T08:21:32.557Z,1.70
2023-05-09T08:24:14.711Z,1.85
2023-05-09T08:26:57.370Z,2.40
2023-05-09T08:29:43.085Z,2.22
2023-05-09T08:32:25.763Z,2.20
2023-05-09T08:35:09.113Z,2.05
2023-05-09T08:37:52.015Z,2.30
2023-05-09T08:40:37.729Z,2.40
2023-05-09T08:43:23.806Z,2.10
2023-05-09T08:46:08.684Z,2.30
2023-05-09T08:48:51.906Z,2.03
2023-05-09T08:51:36.988Z,2.05
2023-05-09T08:54:22.778Z,2.33
2023-05-09T08:57:05.564Z,2.00
2023-05-09T08:59:49.466Z,1.65
2023-05-09T09:02:33.272Z,1.70
2023-05-09T09:05:39.315Z,1.80
2023-05-09T09:08:19.276Z,1.48
2023-05-09T09:11:03.059Z,2.00
2023-05-09T09:13:46.784Z,2.03
2023-05-09T09:16:30.203Z,1.90
2023-05-09T09:19:16.652Z,1.90
2023-05-09T09:22:03.067Z,2.10
2023-05-09T09:27:28.834Z,1.83
2023-05-09T09:30:12.663Z,1.73
2023-05-09T09:32:55.594Z,1.67
2023-05-09T09:35:43.486Z,1.67
2023-05-09T09:38:26.952Z,1.70
2023-05-09T09:41:11.239Z,1.90
2023-05-09T09:43:53.754Z,1.90
2023-05-09T09:46:53.423Z,1.92
2023-05-09T09:49:36.228Z,2.20
2023-05-09T09:52:27.565Z,2.00
2023-05-09T09:55:11.101Z,2.03
2023-05-09T09:57:53.514Z,1.90
2023-05-09T10:00:38.212Z,2.47
2023-05-09T10:03:22.588Z,2.05
2023-05-09T10:06:05.792Z,1.80
2023-05-09T10:08:49.257Z,1.88
2023-05-09T10:11:33.093Z,1.75
2023-05-09T10:14:16.985Z,2.20
2023-05-09T10:17:02.837Z,1.80
2023-05-09T10:19:47.639Z,1.70
2023-05-09T10:22:32.567Z,2.00
2023-05-09T10:25:23.092Z,2.00
2023-05-09T10:28:13.586Z,2.13
2023-05-09T10:31:08.941Z,1.80
2023-05-09T10:33:52.272Z,2.10
2023-05-09T10:36:35.050Z,1.63
2023-05-09T10:39:18.309Z,1.95
2023-05-09T10:42:01.702Z,1.83
2023-05-09T10:44:44.549Z,1.98
2023-05-09T10:47:28.646Z,1.90
2023-05-09T10:50:15.862Z,2.92
2023-05-09T10:53:04.388Z,1.83
2023-05-09T10:55:47.367Z,2.08
2023-05-09T10:58:36.250Z,2.50
2023-05-09T11:01:45.326Z,1.85
2023-05-09T11:04:30.558Z,1.88
2023-05-09T11:07:27.540Z,1.85
2023-05-09T11:10:20.046Z,2.13
2023-05-09T11:13:03.763Z,2.13
2023-05-09T11:16:01.598Z,1.75
2023-05-09T11:18:52.865Z,2.00
2023-05-09T11:21:36.818Z,1.92
2023-05-09T11:24:22.786Z,1.80
2023-05-09T11:27:23.865Z,1.98
2023-05-09T11:30:07.984Z,2.00
2023-05-09T11:33:01.068Z,1.90
2023-05-09T11:35:44.342Z,2.17
2023-05-09T11:38:28.099Z,2.15
2023-05-09T11:41:10.833Z,1.75
2023-05-09T11:43:53.234Z,2.00
2023-05-09T11:46:40.150Z,1.85
2023-05-09T11:49:22.951Z,2.03
2023-05-09T11:52:06.084Z,2.03
2023-05-09T11:54:49.765Z,2.30
2023-05-09T11:57:32.820Z,2.05
2023-05-09T12:00:21.103Z,2.30
2023-05-09T12:03:06.209Z,2.00
2023-05-09T12:05:49.181Z,2.30
2023-05-09T12:08:33.242Z,2.00
2023-05-09T12:11:16.119Z,2.00
2023-05-09T12:13:58.957Z,2.20
2023-05-09T12:16:46.903Z,1.98
2023-05-09T12:19:29.553Z,2.25
2023-05-09T12:22:11.960Z,2.22
2023-05-09T12:24:55.348Z,1.85
2023-05-09T12:27:39.915Z,2.08
2023-05-09T12:30:23.082Z,1.70
2023-05-09T12:33:05.792Z,1.80
2023-05-09T12:36:07.414Z,2.03
2023-05-09T12:38:56.434Z,2.03
2023-05-09T12:41:57.418Z,1.98
2023-05-09T12:44:49.843Z,1.98
2023-05-09T12:47:32.667Z,1.92
2023-05-09T12:50:15.278Z,2.92
2023-05-09T12:53:03.164Z,2.28
2023-05-09T12:55:46.061Z,1.90
2023-05-09T12:58:33.235Z,2.38
2023-05-09T13:01:16.258Z,2.00
2023-05-09T13:04:04.051Z,2.60
2023-05-09T13:06:55.770Z,2.10
2023-05-09T13:09:55.460Z,1.98
2023-05-09T13:12:39.403Z,1.83
2023-05-09T13:15:23.404Z,2.13
2023-05-09T13:18:05.823Z,2.17
2023-05-09T13:20:48.833Z,2.08
2023-05-09T13:23:31.171Z,1.92
2023-05-09T13:26:13.741Z,1.90
2023-05-09T13:28:56.655Z,2.20
2023-05-09T13:31:39.262Z,1.80
2023-05-09T13:34:24.584Z,1.63
2023-05-09T13:37:07.174Z,1.50
2023-05-09T13:39:49.691Z,1.50
2023-05-09T13:42:34.404Z,1.50
2023-05-09T13:45:17.070Z,1.83
2023-05-09T13:47:59.772Z,1.50
2023-05-09T13:50:42.020Z,1.50
2023-05-09T13:53:24.735Z,1.92
2023-05-09T13:56:09.603Z,2.10
2023-05-09T13:58:52.618Z,2.00
2023-05-09T14:01:35.278Z,1.58
2023-05-09T14:04:18.342Z,1.75
2023-05-09T14:07:01.667Z,1.90
2023-05-09T14:09:44.970Z,1.70
2023-05-09T14:12:29.072Z,1.60
2023-05-09T14:15:11.746Z,1.83
2023-05-09T14:17:54.114Z,1.90
2023-05-09T14:20:37.758Z,1.50
2023-05-09T14:23:20.178Z,1.60
2023-05-09T14:26:02.798Z,1.13
2023-05-09T14:28:45.251Z,2.75
2023-05-09T14:31:29.184Z,1.60
2023-05-09T14:34:11.599Z,1.52
2023-05-09T14:36:54.231Z,1.58
2023-05-09T14:39:36.536Z,2.67
2023-05-09T14:42:19.835Z,2.28
2023-05-09T14:45:02.388Z,1.65
2023-05-09T14:47:45.289Z,2.30
2023-05-09T14:50:27.823Z,1.92
2023-05-09T14:53:11.300Z,2.08
2023-05-09T14:55:53.904Z,1.85
2023-05-09T14:58:37.074Z,1.80
2023-05-09T15:01:20.123Z,1.80
2023-05-09T15:04:03.085Z,1.77
2023-05-09T15:06:46.082Z,1.52
2023-05-09T15:09:28.834Z,1.17
2023-05-09T15:12:11.310Z,1.25
2023-05-09T15:14:55.476Z,1.50
2023-05-09T15:17:37.820Z,1.63
2023-05-09T15:20:20.909Z,1.42
2023-05-09T15:23:05.403Z,1.88
2023-05-09T15:25:48.067Z,1.42
2023-05-09T15:28:30.564Z,1.40
2023-05-09T15:31:14.467Z,1.60
2023-05-09T15:33:59.582Z,1.33
2023-05-09T15:36:43.494Z,1.40
2023-05-09T15:39:27.365Z,1.65
2023-05-09T15:42:16.259Z,1.92
2023-05-09T15:44:58.962Z,1.33
2023-05-09T15:47:42.013Z,1.70
2023-05-09T15:50:24.481Z,1.67
2023-05-09T15:53:08.844Z,1.67
2023-05-09T15:55:51.225Z,1.80
2023-05-09T15:58:34.921Z,1.92
2023-05-09T16:01:17.341Z,1.50
2023-05-09T16:04:00.222Z,1.65
2023-05-09T16:06:43.358Z,1.48
2023-05-09T16:09:26.049Z,1.77
2023-05-09T16:12:09.375Z,1.65
2023-05-09T16:14:51.990Z,1.80
2023-05-09T16:17:34.315Z,2.35
2023-05-09T16:20:17.701Z,1.92
2023-05-09T16:23:00.614Z,2.17
2023-05-09T16:25:44.960Z,2.28
2023-05-09T16:28:28.103Z,2.00
2023-05-09T16:31:10.812Z,1.77
2023-05-09T16:33:54.393Z,1.88
2023-05-09T16:36:38.344Z,1.85
2023-05-09T16:39:20.945Z,1.60
2023-05-09T16:42:04.075Z,1.42
2023-05-09T16:44:46.372Z,1.67
2023-05-09T16:47:29.200Z,2.20
2023-05-09T16:50:11.528Z,2.33
2023-05-09T16:52:55.179Z,2.28
2023-05-09T16:55:38.655Z,2.33
2023-05-09T16:58:21.194Z,2.10
2023-05-09T17:01:04.213Z,1.88
2023-05-09T17:03:48.148Z,1.77
2023-05-09T17:06:30.361Z,1.63
2023-05-09T17:09:13.175Z,1.75
2023-05-09T17:11:55.349Z,1.60
2023-05-09T17:14:37.886Z,2.13
2023-05-09T17:17:20.063Z,2.65
2023-05-09T17:20:02.712Z,1.90
2023-05-09T17:22:44.911Z,2.38
2023-05-09T17:25:28.294Z,2.17
2023-05-09T17:28:10.688Z,2.30
2023-05-09T17:30:54.082Z,2.03
2023-05-09T17:33:36.485Z,2.45
2023-05-09T17:36:19.013Z,2.10
2023-05-09T17:39:01.202Z,2.90
2023-05-09T17:41:44.380Z,2.58
2023-05-09T17:44:27.331Z,2.80
2023-05-09T17:47:10.439Z,2.60
2023-05-09T17:49:52.673Z,2.70
2023-05-09T17:52:35.159Z,3.17
2023-05-09T17:55:17.587Z,2.53
2023-05-09T17:58:00.266Z,2.15
2023-05-09T18:00:42.695Z,2.40
2023-05-09T18:03:29.988Z,2.28
2023-05-09T18:06:13.060Z,2.70
2023-05-09T18:08:56.171Z,2.70
2023-05-09T18:11:39.100Z,2.65
2023-05-09T18:14:21.970Z,2.80
2023-05-09T18:17:04.737Z,2.95
2023-05-09T18:19:47.724Z,4.15
2023-05-09T18:22:31.328Z,5.20
2023-05-09T18:25:14.344Z,4.70
2023-05-09T18:27:56.762Z,5.15
2023-05-09T18:30:39.702Z,4.07
2023-05-09T18:33:26.417Z,3.28
2023-05-09T18:36:11.164Z,3.47
2023-05-09T18:38:53.518Z,3.47
2023-05-09T18:41:36.290Z,3.42
2023-05-09T18:44:18.526Z,4.15
2023-05-09T18:47:01.042Z,4.43
2023-05-09T18:49:44.171Z,3.60
2023-05-09T18:52:28.037Z,3.38
2023-05-09T18:55:10.380Z,3.38
2023-05-09T18:57:53.309Z,3.08
2023-05-09T19:00:36.226Z,3.17
2023-05-09T19:03:18.870Z,2.78
2023-05-09T19:06:01.082Z,2.70
2023-05-09T19:08:44.115Z,3.30
2023-05-09T19:11:26.409Z,4.55
2023-05-09T19:14:08.999Z,6.32
2023-05-09T19:16:51.555Z,5.28
2023-05-09T19:19:34.529Z,6.22
2023-05-09T19:22:16.876Z,5.63
2023-05-09T19:24:59.449Z,5.22
2023-05-09T19:27:41.740Z,5.68
2023-05-09T19:30:24.380Z,5.50
2023-05-09T19:33:06.784Z,5.25
2023-05-09T19:35:49.388Z,4.90
2023-05-09T19:38:31.591Z,5.28
2023-05-09T19:41:14.216Z,5.25
2023-05-09T19:43:56.522Z,5.07
2023-05-09T19:46:43.047Z,5.53
2023-05-09T19:49:27.679Z,5.28
2023-05-09T19:52:10.405Z,5.28
2023-05-09T19:54:53.151Z,5.72
2023-05-09T19:57:35.835Z,5.95
2023-05-09T20:00:18.760Z,6.10
2023-05-09T20:03:04.147Z,5.05
2023-05-09T20:05:46.741Z,4.68
2023-05-09T20:08:30.156Z,4.97
2023-05-09T20:11:16.036Z,5.18
2023-05-09T20:13:59.050Z,5.10
2023-05-09T20:16:42.726Z,4.88
2023-05-09T20:19:25.582Z,5.90
2023-05-09T20:22:08.880Z,5.30
2023-05-09T20:24:51.541Z,5.72
2023-05-09T20:27:35.527Z,5.13
2023-05-09T20:30:18.219Z,5.43
2023-05-09T20:33:01.268Z,5.60
2023-05-09T20:35:44.368Z,5.13
2023-05-09T20:38:26.852Z,5.07
2023-05-09T20:41:09.586Z,5.32
2023-05-09T20:43:52.064Z,5.05
2023-05-09T20:46:35.504Z,6.78
2023-05-09T20:49:18.461Z,6.65
2023-05-09T20:52:01.809Z,6.18
2023-05-09T20:54:47.383Z,5.72
2023-05-09T20:57:30.166Z,5.50
2023-05-09T21:00:13.213Z,5.30
2023-05-09T21:02:58.483Z,5.55
2023-05-09T21:05:41.448Z,4.85
2023-05-09T21:08:24.140Z,5.10
2023-05-09T21:11:06.650Z,4.90
2023-05-09T21:13:49.143Z,4.47
2023-05-09T21:16:31.556Z,5.07
2023-05-09T21:19:14.110Z,4.80
2023-05-09T21:21:56.347Z,5.00
2023-05-09T21:24:38.863Z,4.65
2023-05-09T21:27:21.116Z,4.60
2023-05-09T21:30:04.078Z,5.28
2023-05-09T21:32:46.237Z,5.32
2023-05-09T21:35:28.756Z,6.45
2023-05-09T21:38:11.499Z,6.70
2023-05-09T21:40:54.112Z,7.22
2023-05-09T21:43:36.295Z,5.97
2023-05-09T21:46:18.807Z,5.85
2023-05-09T21:49:01.799Z,5.18
2023-05-09T21:51:44.275Z,4.90
2023-05-09T21:54:26.463Z,5.13
2023-05-09T21:57:08.978Z,4.80
2023-05-09T21:59:51.090Z,4.90
2023-05-09T22:02:34.481Z,5.05
2023-05-09T22:05:16.932Z,4.28
2023-05-09T22:07:59.395Z,4.45
2023-05-09T22:10:41.928Z,4.53
2023-05-09T22:13:24.464Z,4.13
2023-05-09T22:16:07.119Z,4.43
2023-05-09T22:18:49.656Z,4.78
2023-05-09T22:21:31.841Z,4.72
2023-05-09T22:24:14.489Z,5.03
2023-05-09T22:26:56.760Z,4.93
2023-05-09T22:29:39.328Z,4.68
2023-05-09T22:32:21.571Z,5.00
2023-05-09T22:35:04.799Z,5.10
2023-05-09T22:37:46.926Z,5.50
2023-05-09T22:40:29.795Z,5.25
2023-05-09T22:43:12.842Z,4.90
2023-05-09T22:45:55.482Z,4.30
2023-05-09T22:48:37.711Z,5.07
2023-05-09T22:51:20.160Z,5.35
2023-05-09T22:54:02.478Z,4.85
2023-05-09T22:56:46.451Z,4.45
2023-05-09T22:59:28.583Z,5.00
2023-05-09T23:02:11.124Z,5.53
2023-05-09T23:04:53.333Z,5.10
2023-05-09T23:07:36.453Z,5.03
2023-05-09T23:10:18.912Z,6.78
2023-05-09T23:13:01.710Z,4.60
2023-05-09T23:15:43.825Z,5.40
2023-05-09T23:18:28.011Z,5.18
2023-05-09T23:21:10.167Z,5.22
2023-05-09T23:23:53.121Z,4.65
2023-05-09T23:26:35.255Z,4.88
2023-05-09T23:29:17.757Z,4.40
2023-05-09T23:31:59.994Z,4.72
2023-05-09T23:34:42.584Z,4.50
2023-05-09T23:37:24.688Z,4.85
2023-05-09T23:40:07.795Z,4.25
2023-05-09T23:42:50.031Z,4.38
2023-05-09T23:45:32.439Z,4.38
2023-05-09T23:48:14.617Z,4.75
2023-05-09T23:50:57.057Z,4.53
2023-05-09T23:53:39.185Z,4.60
2023-05-09T23:56:21.728Z,4.57
2023-05-09T23:59:03.944Z,5.15
